createdAt,value
2023-01-13T00:06:46.486Z,2.83
2023-01-13T00:21:48.562Z,2.90
2023-01-13T00:36:50.700Z,2.90
2023-01-13T00:51:52.792Z,2.92
2023-01-13T01:06:54.933Z,2.78
2023-01-13T01:21:57.245Z,2.80
2023-01-13T01:36:59.399Z,2.70
2023-01-13T01:52:04.846Z,2.70
2023-01-13T05:45:30.768Z,2.70
2023-01-13T06:00:33.068Z,2.97
2023-01-13T06:15:34.995Z,2.50
2023-01-13T06:30:49.823Z,2.67
2023-01-13T06:45:53.072Z,3.10
2023-01-13T07:00:55.173Z,2.90
2023-01-13T07:16:01.579Z,2.85
2023-01-13T07:31:03.890Z,2.90
2023-01-13T07:46:06.237Z,2.78
2023-01-13T08:01:12.564Z,2.70
2023-01-13T08:16:15.209Z,2.70
2023-01-13T08:31:20.106Z,2.53
2023-01-13T08:46:22.136Z,2.75
2023-01-13T09:01:24.232Z,2.60
2023-01-13T09:16:26.665Z,2.80
2023-01-13T09:31:28.892Z,2.70
2023-01-13T09:46:49.345Z,2.80
2023-01-13T10:02:18.486Z,2.75
2023-01-13T10:17:30.771Z,2.70
2023-01-13T10:32:32.722Z,2.60
2023-01-13T10:47:36.227Z,2.60
2023-01-13T11:02:38.784Z,2.70
2023-01-13T11:17:53.659Z,2.28
2023-01-13T11:33:11.326Z,2.50
2023-01-13T11:48:15.641Z,2.58
2023-01-13T12:03:23.864Z,2.70
2023-01-13T12:18:46.927Z,2.60
2023-01-13T12:33:48.895Z,2.50
2023-01-13T12:48:59.708Z,2.60
2023-01-13T13:04:21.131Z,2.60
2023-01-13T13:19:23.008Z,2.70
2023-01-13T13:34:43.481Z,2.90
2023-01-13T13:49:49.146Z,2.75
2023-01-13T14:04:51.035Z,2.60
2023-01-13T14:20:07.856Z,2.63
2023-01-13T14:35:15.158Z,2.75
2023-01-13T14:50:19.386Z,2.53
2023-01-13T15:05:24.016Z,3.00
2023-01-13T15:20:26.140Z,2.58
2023-01-13T15:35:28.551Z,2.90
2023-01-13T15:50:30.555Z,3.00
2023-01-13T16:05:33.096Z,3.10
2023-01-13T16:20:36.213Z,3.22
2023-01-13T16:36:09.300Z,3.15
2023-01-13T16:51:00.569Z,3.90
2023-01-13T17:06:03.837Z,3.47
2023-01-13T17:21:07.113Z,3.60
2023-01-13T17:36:09.341Z,3.38
2023-01-13T17:51:15.454Z,3.30
2023-01-13T18:06:19.005Z,3.17
2023-01-13T18:21:41.621Z,3.38
2023-01-13T18:36:43.752Z,3.47
2023-01-13T18:51:45.867Z,3.53
2023-01-13T19:06:51.845Z,3.45
2023-01-13T19:21:54.075Z,3.33
2023-01-13T19:36:56.180Z,3.20
2023-01-13T19:52:00.300Z,3.38
2023-01-13T20:07:02.815Z,3.15
2023-01-13T20:22:05.452Z,3.38
2023-01-13T20:37:13.049Z,3.40
2023-01-13T20:52:15.331Z,3.30
2023-01-13T21:07:17.785Z,3.33
2023-01-13T21:22:20.167Z,2.97
2023-01-13T21:37:22.418Z,3.10
2023-01-13T21:52:26.014Z,3.13
2023-01-13T22:07:28.709Z,2.85
2023-01-13T22:22:36.782Z,3.00
2023-01-13T22:37:39.217Z,3.30
2023-01-13T22:52:41.691Z,2.88
2023-01-13T23:07:43.890Z,2.95
2023-01-13T23:22:46.199Z,2.85
2023-01-13T23:37:48.471Z,3.10
2023-01-13T23:52:50.761Z,3.13
